Humboldt, IA (50548)

5:47 AM CDT on June 03, 2015 (GMT -0500)
KIADAKOT1 | | Change Station
CLOSE
Current Station
Personal Weather Station
Location: Dakota City, IA
Elevation: 1130 ft
Nearby Weather Stations
Active Advisory: Special Statement

Elev 1130 ft 42.72 °N, 94.20 °W | Updated 6 minutes ago

Overcast
Overcast
62.2 °F
Feels Like 62.2 °F
N
2.0
Wind Variable Wind from SSE
Gusts 2.0 mph

Today
High -- | Low -- °F
--% Chance of Precip.
Yesterday
High -- | Low -- °F
Precip. -- in
5:40 AM 8:49 PM
Full, 99% visible
Pressure 29.88 in
Visibility 10.0 miles
Clouds Mostly Cloudy 4600 ft
Mostly Cloudy 6000 ft
Mostly Cloudy 7000 ft
Dew Point 57 °F
Humidity 83%
Rainfall 0.00 in
Snow Depth Not available.
UV 0 out of 12
Pollen 7.40 out of 12
Air Quality Not available.
Flu Activity No Activity
METAR KFOD 031035Z AUTO 15010G16KT 130V190 10SM BKN046 BKN060 BKN070 17/12 A2988 RMK AO1 LTG DSNT W

More Conditions Fewer Conditions

Pressure 29.88 in
Visibility 10.0 miles
Clouds Mostly Cloudy 4600 ft
Mostly Cloudy 6000 ft
Mostly Cloudy 7000 ft
Dew Point 57 °F
Humidity 83%
Rainfall 0.00 in
Snow Depth Not available.
UV 0 out of 12
Pollen 7.40 out of 12
Air Quality Not available.
Flu Activity No Activity
METAR KFOD 031035Z AUTO 15010G16KT 130V190 10SM BKN046 BKN060 BKN070 17/12 A2988 RMK AO1 LTG DSNT W

More Conditions Fewer Conditions

10-Day Weather Forecast

×

Almanac

Astronomy

Jun. 03, 2015 Rise Set
Actual Time
Civil Twilight
Nautical Twilight
Astronomical Twilight
Moon
Length of Visible Light
Length of Day
Tomorrow will be .
, % of the Moon is Illuminated

Today's Extremes

State Highs State Lows

Community

WunderPhotos

Upload Photos

1,826,198 photos uploaded!

WunderBlogs® & News

Nearby

Air Quality

  Air Quality AQ Index Pollutant
Not available.

Snow Depth

Station Depth Elevation

Earthquake Activity

City Distance Mag. Time & Date
Minimum magnitude displayed is 2.5.

Coastal Water Temperatures

Place Temperature

Stations

Nearby Weather Stations

Station Location Temp. Windchill Dew Point Humidity Wind Precip. Elev Updated Type
                   
Special Statement
Statement as of 5:30 AM CDT on June 03, 2015

... A few strong thunderstorms moving into central Iowa...

A line of thunderstorms is progressing east across the area this
morning. A few of the storms will be strong and will have the
potential to produce nickel sized hail and 50 mph winds gusts
though 7 am.